createdAt,value
2018-12-29T21:19:54.257Z,4.30
2018-12-29T21:22:23.773Z,4.10
2018-12-29T21:24:53.198Z,4.50
2018-12-29T21:27:22.620Z,4.33
2018-12-29T21:29:52.516Z,4.13
2018-12-29T21:32:22.737Z,3.87
2018-12-29T21:34:52.656Z,5.53
2018-12-29T21:37:22.632Z,4.13
2018-12-29T21:39:52.259Z,3.90
2018-12-29T21:42:21.805Z,4.47
2018-12-29T21:44:51.383Z,4.40
2018-12-29T21:47:20.950Z,3.77
2018-12-29T21:49:50.625Z,4.00
2018-12-29T21:52:20.334Z,3.90
2018-12-29T21:54:49.926Z,4.63
2018-12-29T21:57:19.481Z,4.10
2018-12-29T21:59:49.067Z,3.97
2018-12-29T22:02:19.077Z,4.17
2018-12-29T22:04:48.630Z,3.60
2018-12-29T22:07:18.356Z,3.53
2018-12-29T22:09:48.098Z,3.73
2018-12-29T22:12:18.008Z,3.37
2018-12-29T22:14:47.752Z,3.43
2018-12-29T22:17:17.338Z,3.73
2018-12-29T22:19:46.995Z,3.77
2018-12-29T22:22:16.779Z,3.50
2018-12-29T22:24:46.754Z,3.97
2018-12-29T22:27:16.412Z,3.27
2018-12-29T22:29:46.021Z,3.30
2018-12-29T22:32:15.690Z,3.33
2018-12-29T22:34:45.269Z,3.10
2018-12-29T22:37:15.201Z,3.43
2018-12-29T22:39:44.877Z,3.20
2018-12-29T22:42:14.404Z,3.00
2018-12-29T22:44:44.266Z,3.73
2018-12-29T22:47:16.299Z,3.17
2018-12-29T22:49:45.844Z,2.80
2018-12-29T22:52:15.561Z,2.70
2018-12-29T22:54:44.964Z,3.67
2018-12-29T22:57:14.470Z,2.83
2018-12-29T22:59:44.810Z,3.27
2018-12-29T23:02:14.269Z,2.93
2018-12-29T23:04:43.919Z,2.63
2018-12-29T23:07:13.685Z,2.93
2018-12-29T23:09:43.227Z,2.70
2018-12-29T23:12:12.673Z,2.83
2018-12-29T23:14:42.125Z,3.30
2018-12-29T23:17:11.707Z,2.77
2018-12-29T23:19:41.212Z,2.83
2018-12-29T23:22:10.821Z,3.50
2018-12-29T23:24:40.453Z,2.97
2018-12-29T23:27:09.913Z,3.10
2018-12-29T23:29:39.625Z,3.07
2018-12-29T23:32:09.007Z,2.90
2018-12-29T23:34:38.800Z,2.97
2018-12-29T23:37:08.735Z,2.90
2018-12-29T23:39:38.218Z,2.90
2018-12-29T23:42:07.859Z,2.83
2018-12-29T23:44:37.446Z,3.23
2018-12-29T23:47:07.072Z,3.30
2018-12-29T23:49:36.624Z,3.03
2018-12-29T23:52:06.298Z,2.60
2018-12-29T23:54:35.870Z,3.17
2018-12-29T23:57:05.723Z,2.90
2018-12-29T23:59:35.169Z,3.00
